sensor_id;sensor_type;location;lat;lon;timestamp;pressure;altitude;pressure_sealevel;temperature;humidity
21086;BME280;34247;50.064;19.970;2023-04-05T03:44:31;99784.06;;;0.49;62.04
21086;BME280;34247;50.064;19.970;2023-04-05T03:46:04;99773.56;;;0.52;61.91
21086;BME280;34247;50.064;19.970;2023-04-05T03:47:17;99774.34;;;0.55;61.59
21086;BME280;34247;50.064;19.970;2023-04-05T03:48:21;99769.94;;;0.58;61.41
21086;BME280;34247;50.064;19.970;2023-04-05T03:49:25;99779.44;;;0.62;61.13
21086;BME280;34247;50.064;19.970;2023-04-05T03:50:29;99773.53;;;0.53;61.82
21086;BME280;34247;50.064;19.970;2023-04-05T03:51:33;99776.19;;;0.52;62.06
21086;BME280;34247;50.064;19.970;2023-04-05T03:52:39;99774.38;;;0.54;61.61
21086;BME280;34247;50.064;19.970;2023-04-05T03:53:45;99777.78;;;0.59;61.61
21086;BME280;34247;50.064;19.970;2023-04-05T03:54:48;99774.38;;;0.54;61.77
21086;BME280;34247;50.064;19.970;2023-04-05T03:55:52;99771.69;;;0.57;61.29
21086;BME280;34247;50.064;19.970;2023-04-05T03:56:58;99775.97;;;0.61;61.18
21086;BME280;34247;50.064;19.970;2023-04-05T03:58:02;99778.63;;;0.60;61.18
21086;BME280;34247;50.064;19.970;2023-04-05T03:59:10;99779.44;;;0.62;61.29
21086;BME280;34247;50.064;19.970;2023-04-05T04:00:14;99780.28;;;0.65;61.19
21086;BME280;34247;50.064;19.970;2023-04-05T04:01:22;99773.38;;;0.61;61.06
21086;BME280;34247;50.064;19.970;2023-04-05T04:02:26;99772.44;;;0.64;61.25
21086;BME280;34247;50.064;19.970;2023-04-05T04:03:30;99775.91;;;0.66;61.03
21086;BME280;34247;50.064;19.970;2023-04-05T04:04:34;99772.34;;;0.68;61.03
21086;BME280;34247;50.064;19.970;2023-04-05T04:05:44;99775.78;;;0.70;60.80
21086;BME280;34247;50.064;19.970;2023-04-05T04:06:49;99768.97;;;0.63;60.99
21086;BME280;34247;50.064;19.970;2023-04-05T04:07:53;99766.31;;;0.66;61.10
21086;BME280;34247;50.064;19.970;2023-04-05T04:08:57;99775.91;;;0.66;60.97
21086;BME280;34247;50.064;19.970;2023-04-05T04:10:06;99765.44;;;0.66;60.96
21086;BME280;34247;50.064;19.970;2023-04-05T04:11:33;99775.91;;;0.64;60.86
21086;BME280;34247;50.064;19.970;2023-04-05T04:12:38;99780.28;;;0.65;60.95
21086;BME280;34247;50.064;19.970;2023-04-05T04:13:42;99778.56;;;0.63;61.14
21086;BME280;34247;50.064;19.970;2023-04-05T04:14:46;99776.81;;;0.63;61.21
21086;BME280;34247;50.064;19.970;2023-04-05T04:15:50;99773.44;;;0.58;61.17
21086;BME280;34247;50.064;19.970;2023-04-05T04:16:54;99775.19;;;0.56;61.57
21086;BME280;34247;50.064;19.970;2023-04-05T04:17:58;99769.97;;;0.56;61.44
21086;BME280;34247;50.064;19.970;2023-04-05T04:19:02;99779.50;;;0.60;61.43
21086;BME280;34247;50.064;19.970;2023-04-05T04:20:13;99770.84;;;0.57;61.17
21086;BME280;34247;50.064;19.970;2023-04-05T04:21:26;99773.44;;;0.57;61.32
21086;BME280;34247;50.064;19.970;2023-04-05T04:22:34;99775.25;;;0.54;61.68
21086;BME280;34247;50.064;19.970;2023-04-05T04:23:41;99777.84;;;0.54;61.53
21086;BME280;34247;50.064;19.970;2023-04-05T04:24:49;99782.28;;;0.51;61.92
21086;BME280;34247;50.064;19.970;2023-04-05T04:25:53;99785.72;;;0.53;61.77
21086;BME280;34247;50.064;19.970;2023-04-05T04:26:58;99784.00;;;0.52;61.83
21086;BME280;34247;50.064;19.970;2023-04-05T04:28:04;99790.06;;;0.54;61.52
21086;BME280;34247;50.064;19.970;2023-04-05T04:29:11;99785.72;;;0.53;61.74
21086;BME280;34247;50.064;19.970;2023-04-05T04:30:15;99787.44;;;0.54;61.66
21086;BME280;34247;50.064;19.970;2023-04-05T04:31:19;99786.53;;;0.55;61.71
21086;BME280;34247;50.064;19.970;2023-04-05T04:32:28;99783.03;;;0.56;61.47
21086;BME280;34247;50.064;19.970;2023-04-05T04:33:51;99785.63;;;0.58;61.42
21086;BME280;34247;50.064;19.970;2023-04-05T04:34:56;99784.69;;;0.62;61.68
21086;BME280;34247;50.064;19.970;2023-04-05T04:36:11;99787.44;;;0.54;61.98
21086;BME280;34247;50.064;19.970;2023-04-05T04:37:16;99784.78;;;0.55;62.06
21086;BME280;34247;50.064;19.970;2023-04-05T04:38:21;99784.75;;;0.57;61.78
21086;BME280;34247;50.064;19.970;2023-04-05T04:39:28;99785.66;;;0.56;61.52
21086;BME280;34247;50.064;19.970;2023-04-05T04:40:36;99791.75;;;0.57;61.77
21086;BME280;34247;50.064;19.970;2023-04-05T04:41:44;99784.84;;;0.54;61.79
21086;BME280;34247;50.064;19.970;2023-04-05T04:42:49;99785.69;;;0.54;61.69
21086;BME280;34247;50.064;19.970;2023-04-05T04:43:54;99786.59;;;0.53;61.98
21086;BME280;34247;50.064;19.970;2023-04-05T04:45:01;99785.72;;;0.53;62.09
21086;BME280;34247;50.064;19.970;2023-04-05T04:46:10;99789.16;;;0.55;62.19
21086;BME280;34247;50.064;19.970;2023-04-05T04:47:22;99787.53;;;0.51;62.12
21086;BME280;34247;50.064;19.970;2023-04-05T04:48:26;99791.75;;;0.57;62.39
21086;BME280;34247;50.064;19.970;2023-04-05T04:49:30;99785.72;;;0.53;62.40
21086;BME280;34247;50.064;19.970;2023-04-05T04:50:35;99780.44;;;0.56;62.46
21086;BME280;34247;50.064;19.970;2023-04-05T04:51:40;99780.47;;;0.54;62.77
21086;BME280;34247;50.064;19.970;2023-04-05T04:52:46;99784.69;;;0.62;62.35
21086;BME280;34247;50.064;19.970;2023-04-05T04:53:51;99780.28;;;0.65;62.24
21086;BME280;34247;50.064;19.970;2023-04-05T04:54:55;99776.72;;;0.68;61.96
21086;BME280;34247;50.064;19.970;2023-04-05T04:55:59;99780.19;;;0.68;62.27
21086;BME280;34247;50.064;19.970;2023-04-05T04:57:09;99774.91;;;0.71;62.42
21086;BME280;34247;50.064;19.970;2023-04-05T04:58:13;99784.41;;;0.75;62.31
21086;BME280;34247;50.064;19.970;2023-04-05T04:59:16;99782.56;;;0.80;62.13
21086;BME280;34247;50.064;19.970;2023-04-05T05:00:22;99781.56;;;0.86;61.83
21086;BME280;34247;50.064;19.970;2023-04-05T05:01:26;99782.31;;;0.91;61.64
21086;BME280;34247;50.064;19.970;2023-04-05T05:02:30;99777.84;;;0.98;61.40
21086;BME280;34247;50.064;19.970;2023-04-05T05:03:35;99776.84;;;1.03;61.20
21086;BME280;34247;50.064;19.970;2023-04-05T05:04:40;99781.13;;;1.06;61.17
21086;BME280;34247;50.064;19.970;2023-04-05T05:05:48;99779.28;;;1.11;61.02
21086;BME280;34247;50.064;19.970;2023-04-05T05:06:53;99780.94;;;1.15;61.48
21086;BME280;34247;50.064;19.970;2023-04-05T05:07:56;99780.88;;;1.18;61.22
21086;BME280;34247;50.064;19.970;2023-04-05T05:09:00;99779.16;;;1.17;61.59
21086;BME280;34247;50.064;19.970;2023-04-05T05:10:12;99785.28;;;1.16;61.81
21086;BME280;34247;50.064;19.970;2023-04-05T05:11:18;99780.75;;;1.24;61.33
21086;BME280;34247;50.064;19.970;2023-04-05T05:12:22;99786.69;;;1.31;60.78
21086;BME280;34247;50.064;19.970;2023-04-05T05:13:27;99782.97;;;1.41;60.41
21086;BME280;34247;50.064;19.970;2023-04-05T05:14:31;99788.88;;;1.49;60.30
21086;BME280;34247;50.064;19.970;2023-04-05T05:15:38;99787.78;;;1.58;59.97
21086;BME280;34247;50.064;19.970;2023-04-05T05:16:43;99790.13;;;1.70;59.88
21086;BME280;34247;50.064;19.970;2023-04-05T05:17:48;99792.56;;;1.78;59.79
21086;BME280;34247;50.064;19.970;2023-04-05T05:18:58;99788.84;;;1.86;59.08
21086;BME280;34247;50.064;19.970;2023-04-05T05:20:03;99793.03;;;1.93;58.89
21086;BME280;34247;50.064;19.970;2023-04-05T05:21:13;99790.97;;;2.06;58.62
21086;BME280;34247;50.064;19.970;2023-04-05T05:22:17;99791.66;;;2.13;57.93
21086;BME280;34247;50.064;19.970;2023-04-05T05:23:27;99786.38;;;2.14;57.73
21086;BME280;34247;50.064;19.970;2023-04-05T05:24:31;99789.91;;;2.13;57.66
21086;BME280;34247;50.064;19.970;2023-04-05T05:25:35;99791.56;;;2.17;57.53
21086;BME280;34247;50.064;19.970;2023-04-05T05:26:41;99793.22;;;2.20;57.47
21086;BME280;34247;50.064;19.970;2023-04-05T05:27:50;99788.09;;;2.15;57.11
21086;BME280;34247;50.064;19.970;2023-04-05T05:28:54;99795.03;;;2.18;57.31
21086;BME280;34247;50.064;19.970;2023-04-05T05:29:59;99789.75;;;2.19;57.38
21086;BME280;34247;50.064;19.970;2023-04-05T05:31:12;99794.34;;;2.10;57.08
21086;BME280;34247;50.064;19.970;2023-04-05T05:32:17;99794.28;;;2.13;57.15
21086;BME280;34247;50.064;19.970;2023-04-05T05:33:21;99790.66;;;2.18;57.52
21086;BME280;34247;50.064;19.970;2023-04-05T05:34:25;99790.69;;;2.17;56.91
21086;BME280;34247;50.064;19.970;2023-04-05T05:35:30;99790.78;;;2.14;57.07
21086;BME280;34247;50.064;19.970;2023-04-05T05:36:34;99798.72;;;2.09;57.37
21086;BME280;34247;50.064;19.970;2023-04-05T05:37:40;99794.28;;;2.13;57.43
21086;BME280;34247;50.064;19.970;2023-04-05T05:38:44;99791.22;;;2.30;57.45
21086;BME280;34247;50.064;19.970;2023-04-05T05:39:48;99794.47;;;2.39;57.09
21086;BME280;34247;50.064;19.970;2023-04-05T05:40:56;99794.88;;;2.57;56.91
21086;BME280;34247;50.064;19.970;2023-04-05T05:42:01;99790.78;;;2.78;56.50
21086;BME280;34247;50.064;19.970;2023-04-05T05:43:10;99800.59;;;3.00;55.80
21086;BME280;34247;50.064;19.970;2023-04-05T05:44:14;99796.63;;;3.17;55.17
21086;BME280;34247;50.064;19.970;2023-04-05T05:45:18;99800.06;;;3.47;55.15
21086;BME280;34247;50.064;19.970;2023-04-05T05:46:22;99791.69;;;3.64;54.15
21086;BME280;34247;50.064;19.970;2023-04-05T05:47:26;99792.69;;;3.86;53.40
21086;BME280;34247;50.064;19.970;2023-04-05T05:48:30;99790.56;;;3.97;52.45
21086;BME280;34247;50.064;19.970;2023-04-05T05:49:36;99795.00;;;4.22;52.41
21086;BME280;34247;50.064;19.970;2023-04-05T05:50:40;99792.75;;;4.36;51.53
21086;BME280;34247;50.064;19.970;2023-04-05T05:51:44;99789.66;;;4.50;50.51
21086;BME280;34247;50.064;19.970;2023-04-05T05:52:48;99795.69;;;4.52;51.26
21086;BME280;34247;50.064;19.970;2023-04-05T05:53:53;99793.03;;;4.77;50.23
21086;BME280;34247;50.064;19.970;2023-04-05T05:54:57;99794.09;;;4.96;49.74
21086;BME280;34247;50.064;19.970;2023-04-05T05:56:01;99789.03;;;5.13;49.87
21086;BME280;34247;50.064;19.970;2023-04-05T05:57:13;99795.25;;;5.34;48.68
21086;BME280;34247;50.064;19.970;2023-04-05T05:58:18;99780.59;;;5.72;48.66
21086;BME280;34247;50.064;19.970;2023-04-05T05:59:22;99781.63;;;5.68;46.59
21086;BME280;34247;50.064;19.970;2023-04-05T06:00:26;99789.75;;;5.84;46.35
21086;BME280;34247;50.064;19.970;2023-04-05T06:01:30;99775.66;;;6.07;46.52
21086;BME280;34247;50.064;19.970;2023-04-05T06:02:36;99781.38;;;6.37;46.76
21086;BME280;34247;50.064;19.970;2023-04-05T06:03:40;99780.47;;;6.58;46.50
21086;BME280;34247;50.064;19.970;2023-04-05T06:04:44;99784.75;;;6.81;45.95
21086;BME280;34247;50.064;19.970;2023-04-05T06:05:56;99784.59;;;6.84;44.85
21086;BME280;34247;50.064;19.970;2023-04-05T06:07:04;99785.47;;;7.04;44.36
21086;BME280;34247;50.064;19.970;2023-04-05T06:08:12;99782.41;;;7.13;44.34
21086;BME280;34247;50.064;19.970;2023-04-05T06:09:16;99787.69;;;7.13;43.48
21086;BME280;34247;50.064;19.970;2023-04-05T06:10:20;99779.97;;;7.27;43.60
21086;BME280;34247;50.064;19.970;2023-04-05T06:11:24;99776.78;;;7.39;43.60
21086;BME280;34247;50.064;19.970;2023-04-05T06:12:29;99781.41;;;7.34;42.98
21086;BME280;34247;50.064;19.970;2023-04-05T06:13:33;99785.31;;;7.44;42.81
21086;BME280;34247;50.064;19.970;2023-04-05T06:14:37;99777.63;;;7.40;43.01
21086;BME280;34247;50.064;19.970;2023-04-05T06:15:44;99773.31;;;7.37;43.19
21086;BME280;34247;50.064;19.970;2023-04-05T06:16:48;99779.03;;;7.28;43.29
21086;BME280;34247;50.064;19.970;2023-04-05T06:18:04;99783.84;;;7.39;42.27
21086;BME280;34247;50.064;19.970;2023-04-05T06:19:11;99778.13;;;7.48;41.99
21086;BME280;34247;50.064;19.970;2023-04-05T06:20:24;99782.75;;;7.79;42.17
21086;BME280;34247;50.064;19.970;2023-04-05T06:21:34;99776.59;;;7.97;41.65
21086;BME280;34247;50.064;19.970;2023-04-05T06:22:40;99773.00;;;8.16;40.78
21086;BME280;34247;50.064;19.970;2023-04-05T06:23:49;99773.41;;;8.43;41.25
21086;BME280;34247;50.064;19.970;2023-04-05T06:24:52;99777.69;;;8.63;40.20
21086;BME280;34247;50.064;19.970;2023-04-05T06:26:05;99780.38;;;8.78;39.15
21086;BME280;34247;50.064;19.970;2023-04-05T06:27:09;99771.97;;;9.19;40.00
21086;BME280;34247;50.064;19.970;2023-04-05T06:28:14;99783.38;;;9.37;38.65
21086;BME280;34247;50.064;19.970;2023-04-05T06:29:17;99772.06;;;9.65;38.50
21086;BME280;34247;50.064;19.970;2023-04-05T06:30:22;99766.00;;;9.79;37.45
21086;BME280;34247;50.064;19.970;2023-04-05T06:31:30;99765.94;;;9.94;36.79
21086;BME280;34247;50.064;19.970;2023-04-05T06:32:35;99768.28;;;10.31;37.56
21086;BME280;34247;50.064;19.970;2023-04-05T06:33:39;99772.44;;;10.35;36.66
21086;BME280;34247;50.064;19.970;2023-04-05T06:34:43;99769.66;;;10.66;35.86
21086;BME280;34247;50.064;19.970;2023-04-05T06:35:49;99768.88;;;10.78;35.79
21086;BME280;34247;50.064;19.970;2023-04-05T06:36:53;99770.91;;;10.89;35.26
21086;BME280;34247;50.064;19.970;2023-04-05T06:37:58;99764.88;;;11.28;35.44
21086;BME280;34247;50.064;19.970;2023-04-05T06:39:02;99763.00;;;11.57;35.12
21086;BME280;34247;50.064;19.970;2023-04-05T06:40:13;99768.22;;;11.73;34.37
21086;BME280;34247;50.064;19.970;2023-04-05T06:41:18;99761.38;;;11.69;33.53
21086;BME280;34247;50.064;19.970;2023-04-05T06:42:23;99756.44;;;11.63;33.59
21086;BME280;34247;50.064;19.970;2023-04-05T06:43:30;99757.00;;;11.82;33.34
21086;BME280;34247;50.064;19.970;2023-04-05T06:44:35;99750.69;;;12.23;33.22
21086;BME280;34247;50.064;19.970;2023-04-05T06:45:39;99762.13;;;12.51;32.53
21086;BME280;34247;50.064;19.970;2023-04-05T06:46:43;99759.91;;;12.70;31.68
21086;BME280;34247;50.064;19.970;2023-04-05T06:47:48;99762.66;;;12.94;31.97
21086;BME280;34247;50.064;19.970;2023-04-05T06:48:52;99756.47;;;13.06;31.23
21086;BME280;34247;50.064;19.970;2023-04-05T06:49:56;99760.94;;;13.31;31.50
21086;BME280;34247;50.064;19.970;2023-04-05T06:51:02;99755.44;;;13.45;31.49
21086;BME280;34247;50.064;19.970;2023-04-05T06:52:10;99748.69;;;13.29;29.98
21086;BME280;34247;50.064;19.970;2023-04-05T06:53:15;99760.00;;;13.07;29.72
21086;BME280;34247;50.064;19.970;2023-04-05T06:54:20;99764.78;;;13.64;30.75
21086;BME280;34247;50.064;19.970;2023-04-05T06:55:26;99746.91;;;13.77;29.98
21086;BME280;34247;50.064;19.970;2023-04-05T06:56:30;99751.81;;;14.18;30.13
21086;BME280;34247;50.064;19.970;2023-04-05T06:57:34;99750.03;;;14.41;29.21
21086;BME280;34247;50.064;19.970;2023-04-05T06:58:38;99744.34;;;14.34;29.15
21086;BME280;34247;50.064;19.970;2023-04-05T06:59:42;99749.66;;;14.58;29.25
21086;BME280;34247;50.064;19.970;2023-04-05T07:00:45;99743.22;;;14.83;28.06
21086;BME280;34247;50.064;19.970;2023-04-05T07:01:49;99744.31;;;14.58;28.18
21086;BME280;34247;50.064;19.970;2023-04-05T07:02:53;99745.16;;;14.70;28.06
21086;BME280;34247;50.064;19.970;2023-04-05T07:03:57;99746.53;;;14.87;28.13
21086;BME280;34247;50.064;19.970;2023-04-05T07:05:00;99747.84;;;15.04;27.64
21086;BME280;34247;50.064;19.970;2023-04-05T07:06:11;99748.69;;;15.38;27.84
21086;BME280;34247;50.064;19.970;2023-04-05T07:07:15;99740.72;;;15.70;26.95
21086;BME280;34247;50.064;19.970;2023-04-05T07:08:20;99747.66;;;16.05;27.48
21086;BME280;34247;50.064;19.970;2023-04-05T07:09:24;99748.88;;;16.33;26.92
21086;BME280;34247;50.064;19.970;2023-04-05T07:10:29;99747.03;;;16.12;26.83
21086;BME280;34247;50.064;19.970;2023-04-05T07:11:33;99746.59;;;15.96;26.01
21086;BME280;34247;50.064;19.970;2023-04-05T07:12:41;99754.94;;;15.82;26.46
21086;BME280;34247;50.064;19.970;2023-04-05T07:13:45;99748.38;;;15.75;26.33
21086;BME280;34247;50.064;19.970;2023-04-05T07:14:50;99744.94;;;15.84;25.65
21086;BME280;34247;50.064;19.970;2023-04-05T07:16:03;99747.22;;;16.20;25.59
21086;BME280;34247;50.064;19.970;2023-04-05T07:17:13;99736.03;;;15.94;25.93
21086;BME280;34247;50.064;19.970;2023-04-05T07:18:18;99744.50;;;15.99;25.80
21086;BME280;34247;50.064;19.970;2023-04-05T07:19:22;99744.94;;;16.58;25.71
21086;BME280;34247;50.064;19.970;2023-04-05T07:20:26;99742.34;;;16.88;25.63
21086;BME280;34247;50.064;19.970;2023-04-05T07:21:30;99742.47;;;17.17;25.40
21086;BME280;34247;50.064;19.970;2023-04-05T07:22:33;99742.25;;;17.49;24.45
21086;BME280;34247;50.064;19.970;2023-04-05T07:23:39;99742.13;;;17.51;24.46
21086;BME280;34247;50.064;19.970;2023-04-05T07:24:44;99737.19;;;17.46;24.18
21086;BME280;34247;50.064;19.970;2023-04-05T07:25:49;99728.50;;;17.92;24.49
21086;BME280;34247;50.064;19.970;2023-04-05T07:26:53;99736.00;;;17.99;23.45
21086;BME280;34247;50.064;19.970;2023-04-05T07:27:57;99741.66;;;18.15;23.20
21086;BME280;34247;50.064;19.970;2023-04-05T07:29:04;99734.56;;;18.43;22.61
21086;BME280;34247;50.064;19.970;2023-04-05T07:30:13;99734.13;;;18.38;21.50
21086;BME280;34247;50.064;19.970;2023-04-05T07:31:16;99731.44;;;18.48;21.96
21086;BME280;34247;50.064;19.970;2023-04-05T07:32:20;99740.56;;;18.93;22.05
21086;BME280;34247;50.064;19.970;2023-04-05T07:33:28;99738.84;;;18.92;21.79
21086;BME280;34247;50.064;19.970;2023-04-05T07:34:36;99734.97;;;18.67;21.81
21086;BME280;34247;50.064;19.970;2023-04-05T07:35:40;99737.25;;;18.43;21.72
21086;BME280;34247;50.064;19.970;2023-04-05T07:36:47;99742.50;;;18.06;21.90
21086;BME280;34247;50.064;19.970;2023-04-05T07:37:53;99741.53;;;18.26;21.58
21086;BME280;34247;50.064;19.970;2023-04-05T07:38:57;99730.47;;;18.29;21.64
21086;BME280;34247;50.064;19.970;2023-04-05T07:40:00;99741.78;;;17.75;21.43
21086;BME280;34247;50.064;19.970;2023-04-05T07:41:09;99740.47;;;17.69;22.04
21086;BME280;34247;50.064;19.970;2023-04-05T07:42:15;99738.13;;;17.76;22.36
21086;BME280;34247;50.064;19.970;2023-04-05T07:43:22;99735.00;;;18.09;22.09
21086;BME280;34247;50.064;19.970;2023-04-05T07:44:28;99734.31;;;17.98;21.76
21086;BME280;34247;50.064;19.970;2023-04-05T07:45:32;99734.69;;;18.32;22.22
21086;BME280;34247;50.064;19.970;2023-04-05T07:46:36;99730.13;;;18.61;21.79
21086;BME280;34247;50.064;19.970;2023-04-05T07:47:42;99732.59;;;19.01;21.62
21086;BME280;34247;50.064;19.970;2023-04-05T07:48:46;99722.72;;;19.47;21.45
21086;BME280;34247;50.064;19.970;2023-04-05T07:49:53;99731.19;;;19.25;21.40
21086;BME280;34247;50.064;19.970;2023-04-05T07:51:06;99737.66;;;19.05;20.94
21086;BME280;34247;50.064;19.970;2023-04-05T07:52:12;99739.03;;;19.18;20.82
21086;BME280;34247;50.064;19.970;2023-04-05T07:53:22;99730.25;;;19.16;20.21
21086;BME280;34247;50.064;19.970;2023-04-05T07:54:26;99731.34;;;19.78;20.50
21086;BME280;34247;50.064;19.970;2023-04-05T07:55:30;99728.56;;;20.06;20.34
21086;BME280;34247;50.064;19.970;2023-04-05T07:56:36;99732.81;;;20.70;19.96
21086;BME280;34247;50.064;19.970;2023-04-05T07:57:40;99726.69;;;20.86;19.65
21086;BME280;34247;50.064;19.970;2023-04-05T07:58:44;99729.97;;;21.06;19.46
21086;BME280;34247;50.064;19.970;2023-04-05T07:59:50;99726.63;;;20.78;19.59
21086;BME280;34247;50.064;19.970;2023-04-05T08:01:04;99726.50;;;20.61;19.52
21086;BME280;34247;50.064;19.970;2023-04-05T08:02:13;99724.41;;;20.73;19.73
21086;BME280;34247;50.064;19.970;2023-04-05T08:03:28;99724.94;;;20.77;19.34
21086;BME280;34247;50.064;19.970;2023-04-05T08:04:32;99729.50;;;21.10;19.03
21086;BME280;34247;50.064;19.970;2023-04-05T08:05:36;99728.97;;;21.07;19.17
21086;BME280;34247;50.064;19.970;2023-04-05T08:06:40;99730.34;;;21.37;19.17
21086;BME280;34247;50.064;19.970;2023-04-05T08:07:44;99724.63;;;20.80;19.31
21086;BME280;34247;50.064;19.970;2023-04-05T08:08:48;99726.84;;;21.18;19.19
21086;BME280;34247;50.064;19.970;2023-04-05T08:09:53;99725.09;;;21.01;19.06
21086;BME280;34247;50.064;19.970;2023-04-05T08:11:03;99719.88;;;21.08;19.29
21086;BME280;34247;50.064;19.970;2023-04-05T08:12:14;99727.97;;;21.42;19.11
21086;BME280;34247;50.064;19.970;2023-04-05T08:13:19;99725.09;;;21.43;18.90
21086;BME280;34247;50.064;19.970;2023-04-05T08:14:24;99714.84;;;21.47;18.67
21086;BME280;34247;50.064;19.970;2023-04-05T08:15:28;99721.78;;;21.15;18.93
21086;BME280;34247;50.064;19.970;2023-04-05T08:16:32;99724.38;;;20.99;19.21
21086;BME280;34247;50.064;19.970;2023-04-05T08:17:36;99726.53;;;20.87;19.58
21086;BME280;34247;50.064;19.970;2023-04-05T08:18:42;99725.25;;;21.34;19.57
21086;BME280;34247;50.064;19.970;2023-04-05T08:19:46;99719.34;;;21.30;19.49
21086;BME280;34247;50.064;19.970;2023-04-05T08:20:56;99711.00;;;21.66;19.26
21086;BME280;34247;50.064;19.970;2023-04-05T08:22:10;99712.94;;;21.31;19.34
21086;BME280;34247;50.064;19.970;2023-04-05T08:23:15;99721.59;;;21.17;19.39
21086;BME280;34247;50.064;19.970;2023-04-05T08:24:19;99716.38;;;20.81;19.44
21086;BME280;34247;50.064;19.970;2023-04-05T08:25:23;99717.72;;;19.35;20.25
21086;BME280;34247;50.064;19.970;2023-04-05T08:26:29;99720.31;;;18.04;21.71
21086;BME280;34247;50.064;19.970;2023-04-05T08:27:37;99720.53;;;17.62;22.07
21086;BME280;34247;50.064;19.970;2023-04-05T08:28:41;99719.59;;;16.83;22.22
21086;BME280;34247;50.064;19.970;2023-04-05T08:29:45;99727.81;;;16.91;22.73
21086;BME280;34247;50.064;19.970;2023-04-05T08:30:55;99729.50;;;16.92;22.48
21086;BME280;34247;50.064;19.970;2023-04-05T08:32:00;99730.00;;;16.76;22.94
21086;BME280;34247;50.064;19.970;2023-04-05T08:33:10;99726.19;;;16.37;22.79
21086;BME280;34247;50.064;19.970;2023-04-05T08:34:15;99725.97;;;16.08;23.43
21086;BME280;34247;50.064;19.970;2023-04-05T08:35:20;99727.50;;;15.46;23.47
21086;BME280;34247;50.064;19.970;2023-04-05T08:36:24;99725.38;;;14.95;24.07
21086;BME280;34247;50.064;19.970;2023-04-05T08:37:35;99725.09;;;14.53;24.63
21086;BME280;34247;50.064;19.970;2023-04-05T08:38:40;99721.38;;;14.21;24.94
21086;BME280;34247;50.064;19.970;2023-04-05T08:39:44;99725.78;;;13.74;25.25
21086;BME280;34247;50.064;19.970;2023-04-05T08:40:48;99729.72;;;13.57;25.52
21086;BME280;34247;50.064;19.970;2023-04-05T08:42:22;99723.88;;;13.39;25.65
21086;BME280;34247;50.064;19.970;2023-04-05T08:44:00;99725.53;;;13.16;26.44
21086;BME280;34247;50.064;19.970;2023-04-05T08:45:19;99726.44;;;12.91;26.72
21086;BME280;34247;50.064;19.970;2023-04-05T08:46:34;99723.91;;;12.64;26.98
21086;BME280;34247;50.064;19.970;2023-04-05T08:47:40;99726.91;;;12.47;27.38
21086;BME280;34247;50.064;19.970;2023-04-05T08:48:45;99727.78;;;11.95;27.72
21086;BME280;34247;50.064;19.970;2023-04-05T08:49:49;99728.41;;;11.72;27.94
21086;BME280;34247;50.064;19.970;2023-04-05T08:50:54;99725.91;;;11.56;27.67
21086;BME280;34247;50.064;19.970;2023-04-05T08:52:00;99736.00;;;10.95;28.63
21086;BME280;34247;50.064;19.970;2023-04-05T08:53:09;99735.53;;;10.60;29.78
21086;BME280;34247;50.064;19.970;2023-04-05T08:54:17;99724.03;;;10.31;30.49
21086;BME280;34247;50.064;19.970;2023-04-05T08:55:21;99727.22;;;10.06;30.18
21086;BME280;34247;50.064;19.970;2023-04-05T08:56:30;99728.81;;;9.94;30.25
21086;BME280;34247;50.064;19.970;2023-04-05T08:57:42;99734.28;;;9.61;30.99
21086;BME280;34247;50.064;19.970;2023-04-05T08:59:10;99736.84;;;9.47;31.00
21086;BME280;34247;50.064;19.970;2023-04-05T09:00:15;99731.03;;;9.40;30.92
21086;BME280;34247;50.064;19.970;2023-04-05T09:01:21;99726.47;;;9.13;31.45
21086;BME280;34247;50.064;19.970;2023-04-05T09:02:25;99739.75;;;9.11;31.00
21086;BME280;34247;50.064;19.970;2023-04-05T09:03:35;99727.69;;;8.90;31.58
21086;BME280;34247;50.064;19.970;2023-04-05T09:04:43;99728.53;;;8.74;31.71
21086;BME280;34247;50.064;19.970;2023-04-05T09:05:52;99727.31;;;8.64;32.19
21086;BME280;34247;50.064;19.970;2023-04-05T09:06:58;99726.34;;;8.49;31.82
21086;BME280;34247;50.064;19.970;2023-04-05T09:08:04;99726.47;;;8.29;32.38
21086;BME280;34247;50.064;19.970;2023-04-05T09:09:15;99723.13;;;8.25;32.96
21086;BME280;34247;50.064;19.970;2023-04-05T09:10:22;99729.66;;;8.18;33.09
21086;BME280;34247;50.064;19.970;2023-04-05T09:11:27;99729.84;;;8.15;32.44
21086;BME280;34247;50.064;19.970;2023-04-05T09:12:34;99727.22;;;7.98;33.05
21086;BME280;34247;50.064;19.970;2023-04-05T09:13:39;99726.97;;;7.85;33.85
21086;BME280;34247;50.064;19.970;2023-04-05T09:14:43;99723.47;;;7.85;33.42
21086;BME280;34247;50.064;19.970;2023-04-05T09:15:47;99730.63;;;7.83;33.65
21086;BME280;34247;50.064;19.970;2023-04-05T09:16:51;99731.53;;;7.64;35.24
21086;BME280;34247;50.064;19.970;2023-04-05T09:17:59;99729.41;;;7.54;35.23
21086;BME280;34247;50.064;19.970;2023-04-05T09:19:03;99730.44;;;7.68;34.73
21086;BME280;34247;50.064;19.970;2023-04-05T09:20:10;99726.03;;;7.69;34.97
21086;BME280;34247;50.064;19.970;2023-04-05T09:21:14;99730.00;;;7.78;35.12
21086;BME280;34247;50.064;19.970;2023-04-05T09:22:22;99728.28;;;7.77;34.17
21086;BME280;34247;50.064;19.970;2023-04-05T09:23:27;99730.69;;;7.81;34.80
21086;BME280;34247;50.064;19.970;2023-04-05T09:24:37;99725.84;;;7.89;34.21
21086;BME280;34247;50.064;19.970;2023-04-05T09:25:43;99727.91;;;7.84;34.60
21086;BME280;34247;50.064;19.970;2023-04-05T09:27:13;99726.50;;;7.94;34.21
21086;BME280;34247;50.064;19.970;2023-04-05T09:28:17;99728.66;;;8.03;33.57
21086;BME280;34247;50.064;19.970;2023-04-05T09:29:30;99721.34;;;8.09;34.30
21086;BME280;34247;50.064;19.970;2023-04-05T09:30:36;99726.41;;;8.13;34.00
21086;BME280;34247;50.064;19.970;2023-04-05T09:31:40;99720.47;;;8.25;33.78
21086;BME280;34247;50.064;19.970;2023-04-05T09:32:46;99725.25;;;8.19;33.88
21086;BME280;34247;50.064;19.970;2023-04-05T09:33:50;99721.50;;;8.23;33.92